Time;durP1;ratioP1;P1;durP2;ratioP2;P2;SDS_P1;SDS_P2;PMS_P1;PMS_P2;Temp;Humidity;BMP_temperature;BMP_pressure;BME280_temperature;BME280_humidity;BME280_pressure;Samples;Min_cycle;Max_cycle;Signal;HPM_P1;HPM_P2
2022/11/28 00:01:52;;;;;;;6.53;3.40;;;8.50;99.90;;;-144.05;55.65;125687.94;4977547;28;20103;-85
2022/11/28 00:04:22;;;;;;;7.30;3.20;;;8.50;99.90;;;-144.05;55.93;125687.94;4975793;28;20027;-83
2022/11/28 00:06:49;;;;;;;4.53;2.97;;;8.50;99.90;;;-144.05;56.11;125687.94;4959689;28;20086;-84
2022/11/28 00:09:20;;;;;;;5.60;3.08;;;8.50;99.90;;;-144.05;56.64;125687.94;4958547;28;20065;-84
2022/11/28 00:11:50;;;;;;;5.32;3.20;;;8.40;99.90;;;-144.05;56.83;125687.94;4975821;28;20101;-84
2022/11/28 00:14:19;;;;;;;7.60;3.45;;;8.50;99.90;;;-144.05;56.74;125687.94;4959325;28;20547;-83
2022/11/28 00:16:46;;;;;;;5.20;3.40;;;8.40;99.90;;;-144.05;56.17;125687.94;4959202;28;20026;-82
2022/11/28 00:19:13;;;;;;;5.63;3.53;;;8.50;99.90;;;-144.05;57.07;125687.94;4957908;28;20050;-84
2022/11/28 00:21:40;;;;;;;5.35;3.20;;;8.40;99.90;;;-144.05;56.58;125687.94;4958552;28;20054;-84
2022/11/28 00:24:07;;;;;;;6.10;3.65;;;8.40;99.90;;;-144.05;56.90;125687.94;4958463;28;20418;-83
2022/11/28 00:26:39;;;;;;;6.70;3.78;;;8.40;99.90;;;-144.05;57.24;125687.94;4958781;28;20027;-83
2022/11/28 00:29:09;;;;;;;5.28;3.13;;;8.40;99.90;;;-144.05;58.13;125687.94;4958062;28;20485;-83
2022/11/28 00:31:41;;;;;;;5.50;3.70;;;8.40;99.90;;;-144.05;58.99;125687.94;4958284;28;20030;-83
2022/11/28 00:34:11;;;;;;;7.00;3.03;;;8.30;99.90;;;-144.05;60.55;125687.94;4957838;28;20085;-84
2022/11/28 00:36:37;;;;;;;5.60;3.22;;;8.20;99.90;;;-144.05;61.45;125687.94;4974462;28;20031;-84
2022/11/28 00:39:04;;;;;;;7.82;3.85;;;8.10;99.90;;;-144.05;62.49;125687.94;4956278;28;20117;-82
2022/11/28 00:41:32;;;;;;;7.35;3.67;;;8.00;99.90;;;-144.05;63.08;125687.94;4956007;28;20125;-82
2022/11/28 00:43:58;;;;;;;6.53;3.72;;;7.90;99.90;;;-144.05;64.60;125687.94;4957106;28;20038;-83
2022/11/28 00:46:25;;;;;;;6.07;4.03;;;7.80;99.90;;;-144.05;65.95;125687.94;4957077;28;20031;-84
2022/11/28 00:48:52;;;;;;;6.03;3.50;;;7.70;99.90;;;-144.05;66.85;125687.94;4956943;28;20039;-83
2022/11/28 00:51:30;;;;;;;8.65;4.25;;;7.60;99.90;;;-144.05;67.25;125687.94;4957089;28;20039;-83
2022/11/28 00:54:00;;;;;;;7.07;4.03;;;7.60;99.90;;;-144.05;67.06;125687.94;4957102;28;20031;-83
2022/11/28 00:56:38;;;;;;;5.82;3.60;;;7.60;99.90;;;-144.05;67.15;125687.94;4957574;28;20056;-80
2022/11/28 00:59:15;;;;;;;9.18;4.03;;;7.60;99.90;;;-144.05;67.44;125687.94;4959512;28;20463;-82
2022/11/28 01:01:43;;;;;;;7.45;5.05;;;7.50;99.90;;;-144.05;67.74;125687.94;4957054;28;20419;-83
2022/11/28 01:04:14;;;;;;;8.70;3.78;;;7.50;99.90;;;-144.05;67.73;125687.94;4956941;28;20486;-82
2022/11/28 01:06:51;;;;;;;5.93;3.30;;;7.60;99.90;;;-144.05;67.51;125687.94;4974821;28;20038;-83
2022/11/28 01:09:22;;;;;;;8.85;3.40;;;7.50;99.90;;;-144.05;68.24;125687.94;4956795;28;20027;-83
2022/11/28 01:11:52;;;;;;;6.13;3.70;;;7.50;99.90;;;-144.05;68.33;125687.94;4956533;28;20026;-82
2022/11/28 01:14:23;;;;;;;8.13;3.85;;;7.50;99.90;;;-144.05;67.89;125687.94;4974191;28;20109;-83
2022/11/28 01:16:49;;;;;;;9.20;3.95;;;7.60;99.90;;;-144.05;68.91;125687.94;4956994;28;20023;-83
2022/11/28 01:19:16;;;;;;;5.38;3.78;;;7.50;99.90;;;-144.05;68.87;125687.94;4974260;28;20027;-84
2022/11/28 01:21:42;;;;;;;4.82;3.25;;;7.50;99.90;;;-144.05;69.63;125687.94;4956966;28;20030;-84
2022/11/28 01:24:09;;;;;;;5.15;3.88;;;7.50;99.90;;;-144.05;69.99;125687.94;4957680;28;20027;-84
2022/11/28 01:26:39;;;;;;;5.28;3.55;;;7.50;99.90;;;-144.05;69.78;125687.94;4959651;28;20027;-85
2022/11/28 01:29:07;;;;;;;6.20;3.72;;;7.50;99.90;;;-144.05;70.47;125687.94;4991525;28;20107;-83
2022/11/28 01:31:33;;;;;;;5.72;3.90;;;7.50;99.90;;;-144.05;70.56;125687.94;4965919;28;20042;-82
2022/11/28 01:33:59;;;;;;;5.47;3.65;;;7.40;99.90;;;-144.05;70.84;125687.94;4971785;28;20034;-82
2022/11/28 01:36:26;;;;;;;6.72;3.45;;;7.40;99.90;;;-144.05;71.60;125687.94;4955714;28;20027;-81
2022/11/28 01:38:53;;;;;;;5.93;3.60;;;7.40;99.90;;;-144.05;71.47;125687.94;4972847;28;20030;-83
2022/11/28 01:41:25;;;;;;;5.63;3.92;;;7.40;99.90;;;-144.05;72.93;125687.94;4955887;28;20041;-83
2022/11/28 01:44:12;;;;;;;9.23;4.35;;;7.40;99.90;;;-144.05;72.90;125687.94;4955975;28;20023;-80
2022/11/28 01:46:41;;;;;;;6.50;4.22;;;7.30;99.90;;;-144.05;73.65;125687.94;4971864;28;20514;-83
2022/11/28 01:49:27;;;;;;;9.23;4.47;;;7.30;99.90;;;-144.05;74.71;125687.94;4955080;28;20077;-82
2022/11/28 01:52:06;;;;;;;6.18;4.03;;;7.30;99.90;;;-144.05;74.49;125687.94;4957782;28;20161;-82
2022/11/28 01:54:36;;;;;;;7.80;4.10;;;7.20;99.90;;;-144.05;75.16;125687.94;4959127;28;20033;-84
2022/11/28 01:57:10;;;;;;;7.63;4.32;;;7.20;99.90;;;-144.05;75.04;125687.94;4959014;28;20391;-83
2022/11/28 01:59:48;;;;;;;8.95;4.15;;;7.20;99.90;;;-144.05;75.42;125687.94;4958973;28;20071;-81
2022/11/28 02:02:39;;;;;;;7.32;4.72;;;7.20;99.90;;;-144.05;75.70;125687.94;4959108;28;20035;-80
2022/11/28 02:05:07;;;;;;;6.95;4.20;;;7.20;99.90;;;-144.05;75.38;125687.94;4959065;28;20035;-82
2022/11/28 02:07:35;;;;;;;6.22;4.82;;;7.10;99.90;;;-144.05;76.39;125687.94;4958817;28;20031;-82
2022/11/28 02:10:08;;;;;;;10.85;4.95;;;7.10;99.90;;;-144.05;75.24;125687.94;4958747;28;20027;-83
2022/11/28 02:13:34;;;;;;;7.35;4.95;;;7.10;99.90;;;-144.05;75.20;125687.94;4958894;28;20061;-83
2022/11/28 02:16:21;;;;;;;8.70;4.88;;;7.10;99.90;;;-144.05;74.29;125687.94;4975078;28;20561;-83
2022/11/28 02:19:15;;;;;;;7.63;4.78;;;7.10;99.90;;;-144.05;76.00;125687.94;4958578;28;20397;-83
2022/11/28 02:22:38;;;;;;;7.68;4.47;;;7.10;99.90;;;-144.05;75.13;125687.94;4977338;28;20031;-84
2022/11/28 02:26:07;;;;;;;8.77;4.80;;;7.10;99.90;;;-144.05;74.77;125687.94;4945473;28;20043;-84
2022/11/28 02:29:22;;;;;;;6.85;4.90;;;7.10;99.90;;;-144.05;75.01;125687.94;4987730;28;20026;-83
2022/11/28 02:32:32;;;;;;;9.50;5.45;;;7.00;99.90;;;-144.05;75.48;125687.94;4958371;28;20143;-82
2022/11/28 02:35:55;;;;;;;9.35;5.07;;;7.00;99.90;;;-144.05;75.75;125687.94;4974676;28;20042;-82
2022/11/28 02:38:39;;;;;;;8.40;4.75;;;7.00;99.90;;;-144.05;74.91;125687.94;4974469;28;20034;-82
2022/11/28 02:41:40;;;;;;;8.73;4.78;;;6.90;99.90;;;-144.05;75.17;125687.94;4974382;28;20522;-82
2022/11/28 02:44:21;;;;;;;9.40;5.45;;;7.00;99.90;;;-144.05;75.15;125687.94;4948195;28;20122;-84
2022/11/28 02:47:13;;;;;;;7.30;4.65;;;6.90;99.90;;;-144.05;75.01;125687.94;4958283;28;20037;-85
2022/11/28 02:49:55;;;;;;;9.40;4.95;;;6.90;99.90;;;-144.05;74.51;125687.94;4958191;28;20026;-83
2022/11/28 02:52:34;;;;;;;7.97;5.05;;;6.90;99.90;;;-144.05;73.58;125687.94;4975887;28;20031;-82
2022/11/28 02:55:04;;;;;;;8.55;5.15;;;7.00;99.90;;;-144.05;73.39;125687.94;4958004;28;20031;-82
2022/11/28 02:57:47;;;;;;;8.85;4.90;;;7.00;99.90;;;-144.05;73.51;125687.94;4957934;28;20027;-82
2022/11/28 03:00:36;;;;;;;7.38;4.88;;;7.00;99.90;;;-144.05;72.98;125687.94;4958432;28;20034;-82
2022/11/28 03:03:42;;;;;;;9.20;4.75;;;7.00;99.90;;;-144.05;73.00;125687.94;4956778;28;20026;-82
2022/11/28 03:07:13;;;;;;;9.30;5.10;;;7.00;99.90;;;-144.05;72.18;125687.94;4957882;28;20035;-83
2022/11/28 03:10:29;;;;;;;7.22;4.93;;;7.10;99.90;;;-144.05;71.70;125687.94;4950178;28;20039;-82
2022/11/28 03:13:37;;;;;;;6.47;4.40;;;7.10;99.90;;;-144.05;71.67;125687.94;4942573;28;20376;-82
2022/11/28 03:16:37;;;;;;;7.60;4.70;;;7.10;99.90;;;-144.05;71.21;125687.94;4931677;28;20035;-82
2022/11/28 03:19:50;;;;;;;10.82;5.22;;;7.10;99.90;;;-144.05;70.68;125687.94;4957286;28;20491;-83
2022/11/28 03:22:37;;;;;;;8.23;4.88;;;7.10;99.90;;;-144.05;71.07;125687.94;4957562;28;20070;-82
2022/11/28 03:26:01;;;;;;;10.98;5.20;;;7.20;99.90;;;-144.05;70.87;125687.94;4957522;28;20038;-83
2022/11/28 03:29:05;;;;;;;8.98;4.78;;;7.10;99.90;;;-144.05;70.11;125687.94;4957259;28;20031;-82
2022/11/28 03:31:52;;;;;;;7.15;4.63;;;7.20;99.90;;;-144.05;70.56;125687.94;4957163;28;20035;-81
2022/11/28 03:34:25;;;;;;;10.45;5.45;;;7.20;99.90;;;-144.05;70.06;125687.94;4957118;28;20037;-81
2022/11/28 03:37:17;;;;;;;8.05;4.22;;;7.20;99.90;;;-144.05;70.07;125687.94;4957610;28;20031;-85
2022/11/28 03:39:56;;;;;;;7.40;4.95;;;7.20;99.90;;;-144.05;68.96;125687.94;4974945;28;20121;-86
2022/11/28 03:42:29;;;;;;;7.60;4.80;;;7.20;99.90;;;-144.05;69.17;125687.94;4959743;28;20042;-83
2022/11/28 03:45:35;;;;;;;9.30;5.10;;;7.20;99.90;;;-144.05;68.50;125687.94;4967233;28;20037;-84
2022/11/28 03:48:14;;;;;;;9.73;5.38;;;7.20;99.90;;;-144.05;68.64;125687.94;4972309;28;20023;-82
2022/11/28 03:51:12;;;;;;;6.22;4.65;;;7.20;99.90;;;-144.05;68.84;125687.94;4956954;28;20066;-82
2022/11/28 03:54:21;;;;;;;6.72;4.45;;;7.20;99.90;;;-144.05;67.99;125687.94;4938701;28;20041;-83
2022/11/28 03:57:29;;;;;;;7.20;5.10;;;7.20;99.90;;;-144.05;67.53;125687.94;4956645;28;20046;-81
2022/11/28 04:00:02;;;;;;;7.90;5.10;;;7.30;99.90;;;-144.05;67.23;125687.94;4938577;28;20180;-82
2022/11/28 04:02:57;;;;;;;7.40;4.63;;;7.30;99.90;;;-144.05;67.13;125687.94;4956676;28;20042;-83
2022/11/28 04:05:56;;;;;;;11.32;4.72;;;7.30;99.90;;;-144.05;66.93;125687.94;4973252;28;20093;-83
2022/11/28 04:09:05;;;;;;;6.93;4.38;;;7.30;99.90;;;-144.05;67.12;125687.94;4956500;28;20030;-83
2022/11/28 04:11:50;;;;;;;6.30;4.47;;;7.30;99.90;;;-144.05;67.12;125687.94;4957015;28;20089;-83
2022/11/28 04:14:40;;;;;;;5.55;4.00;;;7.20;99.90;;;-144.05;67.10;125687.94;4956769;28;20050;-82
2022/11/28 04:17:27;;;;;;;5.45;4.18;;;7.20;99.90;;;-144.05;67.88;125687.94;4957322;28;20031;-82
2022/11/28 04:20:19;;;;;;;6.25;3.80;;;7.20;99.90;;;-144.05;67.49;125687.94;4956494;28;20027;-81
2022/11/28 04:22:56;;;;;;;5.88;4.40;;;7.20;99.90;;;-144.05;67.36;125687.94;4973628;28;20027;-82
2022/11/28 04:25:36;;;;;;;6.30;4.20;;;7.20;99.90;;;-144.05;67.31;125687.94;4957917;28;20042;-83
2022/11/28 04:28:22;;;;;;;5.45;4.05;;;7.20;99.90;;;-144.05;67.84;125687.94;4976288;28;20078;-84
2022/11/28 04:30:52;;;;;;;7.10;4.27;;;7.30;99.90;;;-144.05;68.03;125687.94;4957189;28;20038;-81
2022/11/28 04:33:25;;;;;;;7.72;4.47;;;7.30;99.90;;;-144.05;67.47;125687.94;4956964;28;20039;-81
2022/11/28 04:35:55;;;;;;;7.65;4.88;;;7.20;99.90;;;-144.05;67.98;125687.94;4956795;28;20494;-82
2022/11/28 04:38:27;;;;;;;8.05;3.90;;;7.30;99.90;;;-144.05;66.88;125687.94;4974507;28;20474;-83
2022/11/28 04:41:21;;;;;;;5.45;4.05;;;7.20;99.90;;;-144.05;67.45;125687.94;4956936;28;20483;-81
2022/11/28 04:44:27;;;;;;;6.97;3.70;;;7.30;99.90;;;-144.05;66.78;125687.94;4957484;28;20096;-82
2022/11/28 04:46:57;;;;;;;7.77;4.00;;;7.30;99.90;;;-144.05;67.58;125687.94;4957416;28;20034;-82
2022/11/28 04:49:29;;;;;;;7.65;3.63;;;7.20;99.90;;;-144.05;67.44;125687.94;4956594;28;20270;-83
2022/11/28 04:52:36;;;;;;;6.10;4.13;;;7.20;99.90;;;-144.05;67.66;125687.94;4974324;28;20459;-81
2022/11/28 04:55:29;;;;;;;7.82;4.53;;;7.20;99.90;;;-144.05;68.10;125687.94;4956632;28;20035;-81
2022/11/28 04:58:33;;;;;;;9.10;4.05;;;7.20;99.90;;;-144.05;67.26;125687.94;4973371;28;20106;-83
2022/11/28 05:01:08;;;;;;;7.60;4.07;;;7.20;99.90;;;-144.05;67.34;125687.94;4956903;28;20035;-81
2022/11/28 05:03:36;;;;;;;7.35;4.60;;;7.20;99.90;;;-144.05;67.25;125687.94;4974431;28;20050;-81
2022/11/28 05:06:03;;;;;;;7.90;4.25;;;7.20;99.90;;;-144.05;68.05;125687.94;4956504;28;20049;-81
2022/11/28 05:08:29;;;;;;;7.32;4.07;;;7.30;99.90;;;-144.05;68.56;125687.94;4956066;28;20127;-84
2022/11/28 05:10:55;;;;;;;8.43;4.35;;;7.20;99.90;;;-144.05;67.99;125687.94;4956021;28;20066;-83
2022/11/28 05:13:21;;;;;;;7.07;4.70;;;7.20;99.90;;;-144.05;67.49;125687.94;4956412;28;20062;-83
2022/11/28 05:15:47;;;;;;;8.70;4.28;;;7.20;99.90;;;-144.05;67.17;125687.94;4973933;28;20070;-83
2022/11/28 05:18:13;;;;;;;6.68;4.32;;;7.20;99.90;;;-144.05;66.76;125687.94;4973672;28;20027;-82
2022/11/28 05:20:40;;;;;;;6.70;4.57;;;7.20;99.90;;;-144.05;66.50;125687.94;4956346;28;20551;-83
2022/11/28 05:23:06;;;;;;;7.20;4.53;;;7.20;99.90;;;-144.05;66.79;125687.94;4956527;28;20033;-81
2022/11/28 05:25:32;;;;;;;6.13;3.83;;;7.20;99.90;;;-144.05;66.58;125687.94;4957053;28;20027;-83
2022/11/28 05:27:58;;;;;;;8.35;4.43;;;7.20;99.90;;;-144.05;66.50;125687.94;4980120;28;20041;-79
2022/11/28 05:30:24;;;;;;;6.30;3.70;;;7.30;99.90;;;-144.05;66.76;125687.94;4962519;28;20035;-83
2022/11/28 05:32:53;;;;;;;6.18;4.22;;;7.20;99.90;;;-144.05;66.70;125687.94;4962326;28;20055;-81
2022/11/28 05:35:19;;;;;;;8.35;4.10;;;7.20;99.90;;;-144.05;67.38;125687.94;4962309;28;20035;-83
2022/11/28 05:37:44;;;;;;;7.40;4.10;;;7.20;99.90;;;-144.05;66.71;125687.94;4978351;28;20081;-83
2022/11/28 05:40:11;;;;;;;8.70;4.28;;;7.30;99.90;;;-144.05;66.24;125687.94;4962076;28;20121;-81
2022/11/28 05:42:37;;;;;;;7.55;4.53;;;7.30;99.90;;;-144.05;65.92;125687.94;4962274;28;20049;-81
2022/11/28 05:45:03;;;;;;;9.38;4.45;;;7.30;99.90;;;-144.05;65.64;125687.94;4980119;28;20483;-81
2022/11/28 05:47:32;;;;;;;5.18;4.20;;;7.40;99.90;;;-144.05;65.31;125687.94;4962521;28;20026;-82
2022/11/28 05:49:58;;;;;;;6.43;4.07;;;7.40;99.90;;;-144.05;64.99;125687.94;4961999;28;20091;-83
2022/11/28 05:52:24;;;;;;;9.48;3.47;;;7.30;99.90;;;-144.05;65.60;125687.94;4962739;28;20376;-83
2022/11/28 05:54:52;;;;;;;6.10;3.78;;;7.30;99.90;;;-144.05;66.04;125687.94;4978421;28;20121;-83
2022/11/28 05:57:21;;;;;;;8.73;3.92;;;7.30;99.90;;;-144.05;66.30;125687.94;4962713;28;20081;-80
2022/11/28 05:59:54;;;;;;;5.97;4.05;;;7.20;99.90;;;-144.05;66.29;125687.94;4965778;28;20094;-81
2022/11/28 06:02:27;;;;;;;6.18;3.40;;;7.30;99.90;;;-144.05;65.65;125687.94;4977254;28;20025;-82
2022/11/28 06:04:53;;;;;;;8.80;4.32;;;7.20;99.90;;;-144.05;64.75;125687.94;4963823;28;20031;-83
2022/11/28 06:07:19;;;;;;;6.70;3.72;;;7.30;99.90;;;-144.05;64.85;125687.94;4961909;28;20528;-81
2022/11/28 06:09:45;;;;;;;4.72;3.10;;;7.40;99.90;;;-144.05;64.58;125687.94;4962277;28;20499;-81
2022/11/28 06:12:10;;;;;;;4.65;3.08;;;7.40;99.90;;;-144.05;64.34;125687.94;4979891;28;20041;-83
2022/11/28 06:14:36;;;;;;;7.60;3.78;;;7.50;99.90;;;-144.05;64.11;125687.94;4961964;28;20086;-81
2022/11/28 06:17:02;;;;;;;6.35;3.10;;;7.50;99.90;;;-144.05;63.26;125687.94;4962491;28;20089;-82
2022/11/28 06:19:28;;;;;;;7.78;4.00;;;7.50;99.90;;;-144.05;63.80;125687.94;4962317;28;20081;-82
2022/11/28 06:21:55;;;;;;;7.68;3.40;;;7.50;99.90;;;-144.05;63.68;125687.94;4963314;28;20038;-85
2022/11/28 06:24:21;;;;;;;8.20;3.78;;;7.50;99.90;;;-144.05;63.75;125687.94;4963166;28;20430;-83
2022/11/28 06:26:47;;;;;;;6.22;3.70;;;7.50;99.90;;;-144.05;63.28;125687.94;4980150;28;20050;-83
2022/11/28 06:29:12;;;;;;;5.70;3.17;;;7.50;99.90;;;-144.05;62.90;125687.94;4962513;28;20093;-82
2022/11/28 06:31:38;;;;;;;5.90;3.85;;;7.50;99.90;;;-144.05;63.01;125687.94;4962530;28;20030;-82
2022/11/28 06:34:04;;;;;;;6.75;3.70;;;7.60;99.90;;;-144.05;63.03;125687.94;4963046;28;20043;-83
2022/11/28 06:36:30;;;;;;;4.75;3.20;;;7.50;99.90;;;-144.05;63.49;125687.94;4979864;28;20031;-82
2022/11/28 06:38:56;;;;;;;6.18;3.33;;;7.40;99.90;;;-144.05;63.94;125687.94;4976720;28;20027;-81
2022/11/28 06:41:22;;;;;;;7.43;3.63;;;7.40;99.90;;;-144.05;64.21;125687.94;4959336;28;20067;-82
2022/11/28 06:43:48;;;;;;;6.90;4.10;;;7.30;99.90;;;-144.05;64.97;125687.94;4959366;28;20031;-83
2022/11/28 06:46:19;;;;;;;5.65;3.90;;;7.40;99.90;;;-144.05;64.72;125687.94;4959403;28;20117;-83
2022/11/28 06:48:51;;;;;;;6.57;4.32;;;7.40;99.90;;;-144.05;64.55;125687.94;4959247;28;20446;-81
2022/11/28 06:51:19;;;;;;;6.10;3.80;;;7.40;99.90;;;-144.05;64.68;125687.94;4960060;28;20049;-83
2022/11/28 06:53:45;;;;;;;5.82;3.70;;;7.50;99.90;;;-144.05;64.58;125687.94;4959837;28;20030;-83
2022/11/28 06:56:19;;;;;;;8.93;4.20;;;7.50;99.90;;;-144.05;64.53;125687.94;4959013;28;20514;-83
2022/11/28 06:58:51;;;;;;;8.10;3.47;;;7.50;99.90;;;-144.05;64.25;125687.94;4959708;28;20043;-82
2022/11/28 07:01:22;;;;;;;6.63;4.63;;;7.50;99.90;;;-144.05;64.51;125687.94;4977113;28;20347;-84
2022/11/28 07:03:49;;;;;;;8.82;4.00;;;7.50;99.90;;;-144.05;64.85;125687.94;4978356;28;20105;-81
2022/11/28 07:06:18;;;;;;;9.50;4.50;;;7.50;99.90;;;-144.05;64.84;125687.94;4959609;28;20027;-81
2022/11/28 07:08:45;;;;;;;8.73;4.63;;;7.50;99.90;;;-144.05;64.63;125687.94;4957737;28;20399;-82
2022/11/28 07:11:23;;;;;;;7.57;4.13;;;7.50;99.90;;;-144.05;64.31;125687.94;4957711;28;20356;-83
2022/11/28 07:13:52;;;;;;;8.23;4.05;;;7.50;99.90;;;-144.05;64.33;125687.94;4957803;28;20027;-82
2022/11/28 07:16:29;;;;;;;6.43;4.18;;;7.50;99.90;;;-144.05;63.93;125687.94;4957859;28;20503;-83
2022/11/28 07:18:56;;;;;;;8.43;4.40;;;7.60;99.90;;;-144.05;63.45;125687.94;4983739;28;20045;-82
2022/11/28 07:21:22;;;;;;;7.28;4.43;;;7.60;99.90;;;-144.05;63.06;125687.94;4976258;28;20049;-83
2022/11/28 07:23:49;;;;;;;6.35;4.38;;;7.70;99.90;;;-144.05;63.29;125687.94;4977425;28;20054;-82
2022/11/28 07:26:21;;;;;;;8.60;4.90;;;7.60;99.90;;;-144.05;62.50;125687.94;4957274;28;20101;-81
2022/11/28 07:28:50;;;;;;;6.60;4.20;;;7.70;99.90;;;-144.05;62.47;125687.94;4957237;28;20347;-82
2022/11/28 07:31:20;;;;;;;7.70;5.03;;;7.70;99.90;;;-144.05;62.64;125687.94;4957235;28;20064;-83
2022/11/28 07:33:50;;;;;;;8.90;4.40;;;7.70;99.90;;;-144.05;62.75;125687.94;4957319;28;20034;-81
2022/11/28 07:36:34;;;;;;;8.88;5.10;;;7.70;99.90;;;-144.05;63.45;125687.94;4957733;28;20038;-82
2022/11/28 07:39:04;;;;;;;10.85;4.80;;;7.60;99.90;;;-144.05;62.82;125687.94;4974731;28;20475;-83
2022/11/28 07:41:30;;;;;;;7.78;4.45;;;7.70;99.90;;;-144.05;62.57;125687.94;4957434;28;20031;-81
2022/11/28 07:44:03;;;;;;;8.98;5.05;;;7.70;99.90;;;-144.05;62.67;125687.94;4957320;28;20027;-80
2022/11/28 07:46:31;;;;;;;7.80;4.72;;;7.70;99.90;;;-144.05;62.25;125687.94;4974585;28;20035;-80
2022/11/28 07:48:57;;;;;;;7.72;5.00;;;7.80;99.90;;;-144.05;61.92;125687.94;4972628;28;20105;-81
2022/11/28 07:51:31;;;;;;;8.43;4.65;;;7.80;99.90;;;-144.05;62.33;125687.94;4974329;28;20027;-81
2022/11/28 07:53:59;;;;;;;8.02;4.70;;;7.70;99.90;;;-144.05;62.77;125687.94;4974363;28;20045;-80
2022/11/28 07:56:32;;;;;;;8.50;4.95;;;7.70;99.90;;;-144.05;62.28;125687.94;4957160;28;20449;-78
2022/11/28 07:59:00;;;;;;;9.18;5.25;;;7.60;99.90;;;-144.05;62.10;125687.94;4974509;28;20075;-81
2022/11/28 08:01:37;;;;;;;10.45;5.32;;;7.70;99.90;;;-144.05;61.21;125687.94;4957093;28;20034;-82
2022/11/28 08:04:09;;;;;;;9.38;4.70;;;7.70;99.90;;;-144.05;61.40;125687.94;4974636;28;20031;-84
2022/11/28 08:06:40;;;;;;;8.82;5.03;;;7.70;99.90;;;-144.05;61.38;125687.94;4957335;28;20027;-83
2022/11/28 08:09:08;;;;;;;7.85;5.07;;;7.70;99.90;;;-144.05;61.65;125687.94;4957237;28;20081;-84
2022/11/28 08:11:34;;;;;;;7.85;5.25;;;7.70;99.90;;;-144.05;61.21;125687.94;4969395;28;20109;-82
2022/11/28 08:14:02;;;;;;;8.20;4.82;;;7.70;99.90;;;-144.05;61.55;125687.94;4962075;28;20035;-81
2022/11/28 08:16:29;;;;;;;7.93;5.00;;;7.80;99.90;;;-144.05;61.52;125687.94;4973833;28;20125;-80
2022/11/28 08:18:59;;;;;;;7.25;4.57;;;7.70;99.90;;;-144.05;60.95;125687.94;4956269;28;20034;-84
2022/11/28 08:21:33;;;;;;;6.50;4.63;;;7.80;99.90;;;-144.05;61.37;125687.94;4956451;28;20072;-82
2022/11/28 08:24:01;;;;;;;7.72;4.72;;;7.70;99.90;;;-144.05;61.67;125687.94;4956609;28;20027;-81
2022/11/28 08:26:30;;;;;;;7.22;4.88;;;7.70;99.90;;;-144.05;61.32;125687.94;4956436;28;20019;-82
2022/11/28 08:29:04;;;;;;;7.78;4.65;;;7.70;99.90;;;-144.05;61.19;125687.94;4956217;28;20039;-83
2022/11/28 08:31:37;;;;;;;8.00;4.50;;;7.80;99.90;;;-144.05;61.99;125687.94;4956574;28;20031;-82
2022/11/28 08:34:09;;;;;;;7.55;4.40;;;7.70;99.90;;;-144.05;62.26;125687.94;4956567;28;20090;-81
2022/11/28 08:36:36;;;;;;;7.82;4.60;;;7.80;99.90;;;-144.05;62.05;125687.94;4973893;28;20470;-81
2022/11/28 08:39:04;;;;;;;9.57;4.95;;;7.80;99.90;;;-144.05;61.78;125687.94;4956376;28;20536;-80
2022/11/28 08:41:30;;;;;;;7.50;4.88;;;7.70;99.90;;;-144.05;62.15;125687.94;4956680;28;20517;-83
2022/11/28 08:43:56;;;;;;;7.78;4.95;;;7.80;99.90;;;-144.05;62.09;125687.94;4957506;28;20056;-81
2022/11/28 08:46:22;;;;;;;8.90;5.03;;;7.80;99.90;;;-144.05;62.00;125687.94;4957966;28;20026;-82
2022/11/28 08:48:51;;;;;;;9.70;5.05;;;7.80;99.90;;;-144.05;61.86;125687.94;4956088;28;20395;-83
2022/11/28 08:51:22;;;;;;;8.05;4.72;;;7.80;99.90;;;-144.05;62.37;125687.94;4955901;28;20031;-79
2022/11/28 08:53:52;;;;;;;8.13;4.70;;;7.90;99.90;;;-144.05;62.20;125687.94;4955828;28;20027;-83
2022/11/28 08:56:18;;;;;;;7.53;5.25;;;7.90;99.90;;;-144.05;61.76;125687.94;4955985;28;20130;-81
2022/11/28 08:58:44;;;;;;;8.82;4.55;;;7.90;99.90;;;-144.05;61.74;125687.94;4956485;28;20038;-86
2022/11/28 09:01:19;;;;;;;8.07;4.88;;;7.90;99.90;;;-144.05;61.99;125687.94;4956471;28;20057;-83
2022/11/28 09:03:46;;;;;;;6.60;4.75;;;7.90;99.90;;;-144.05;62.86;125687.94;4955745;28;20487;-82
2022/11/28 09:06:14;;;;;;;7.35;4.88;;;8.00;99.90;;;-144.05;62.88;125687.94;4955654;28;20030;-81
2022/11/28 09:08:40;;;;;;;8.10;4.68;;;8.00;99.90;;;-144.05;62.92;125687.94;4973166;28;20450;-83
2022/11/28 09:11:10;;;;;;;8.55;5.47;;;7.90;99.90;;;-144.05;62.96;125687.94;4955383;28;20045;-81
2022/11/28 09:13:37;;;;;;;8.77;4.95;;;8.00;99.90;;;-144.05;62.97;125687.94;4971476;28;20419;-80
2022/11/28 09:16:05;;;;;;;10.05;5.18;;;8.00;99.90;;;-144.05;63.25;125687.94;4971553;28;20046;-83
2022/11/28 09:18:31;;;;;;;7.72;5.07;;;8.00;99.90;;;-144.05;62.94;125687.94;4972560;28;20376;-83
2022/11/28 09:21:07;;;;;;;8.98;4.80;;;8.00;99.90;;;-144.05;62.82;125687.94;4955734;28;20394;-83
2022/11/28 09:23:42;;;;;;;7.63;4.55;;;8.00;99.90;;;-144.05;62.80;125687.94;4955665;28;20228;-82
2022/11/28 09:26:20;;;;;;;8.70;5.28;;;8.00;99.90;;;-144.05;63.43;125687.94;4955401;28;20023;-81
2022/11/28 09:28:47;;;;;;;8.20;5.18;;;8.00;99.90;;;-144.05;62.64;125687.94;4972914;28;20107;-83
2022/11/28 09:31:16;;;;;;;5.95;4.53;;;8.10;99.90;;;-144.05;62.48;125687.94;4972857;28;20031;-83
2022/11/28 09:33:45;;;;;;;10.38;6.10;;;8.10;99.90;;;-144.05;63.37;125687.94;4955371;28;20034;-83
2022/11/28 09:36:21;;;;;;;8.30;4.90;;;8.10;99.90;;;-144.05;63.40;125687.94;4973032;28;20081;-82
2022/11/28 09:38:47;;;;;;;7.10;4.50;;;8.10;99.90;;;-144.05;63.65;125687.94;4955008;28;20030;-83
2022/11/28 09:42:11;;;;;;;9.95;4.35;;;8.10;99.90;;;-144.05;63.44;125687.94;4955626;28;20470;-83
2022/11/28 09:45:01;;;;;;;7.60;4.22;;;8.20;99.90;;;-144.05;63.87;125687.94;4971611;28;20031;-83
2022/11/28 09:47:33;;;;;;;6.50;4.50;;;8.20;99.90;;;-144.05;63.38;125687.94;4955634;28;20027;-84
2022/11/28 09:50:25;;;;;;;7.97;5.05;;;8.20;99.90;;;-144.05;64.20;125687.94;4955244;28;20395;-82
2022/11/28 09:53:26;;;;;;;9.15;4.47;;;8.20;99.90;;;-144.05;64.53;125687.94;4955316;28;20030;-82
2022/11/28 09:56:04;;;;;;;9.25;4.32;;;8.20;99.90;;;-144.05;64.57;125687.94;4955737;28;20066;-81
2022/11/28 09:58:54;;;;;;;7.47;4.07;;;8.20;99.90;;;-144.05;64.49;125687.94;4955450;28;20475;-82
2022/11/28 10:01:42;;;;;;;7.35;4.80;;;8.20;99.90;;;-144.05;65.06;125687.94;4955478;28;20426;-82
2022/11/28 10:04:49;;;;;;;7.63;4.35;;;8.20;99.90;;;-144.05;64.77;125687.94;4955448;28;20023;-82
2022/11/28 10:07:45;;;;;;;;;;;8.20;99.90;;;-144.05;63.74;125687.94;4972103;28;20380;-83
2022/11/28 10:10:39;;;;;;;10.80;4.72;;;8.20;99.90;;;-144.05;64.66;125687.94;4955255;28;19996;-81
2022/11/28 10:13:34;;;;;;;9.10;5.22;;;8.30;99.90;;;-144.05;64.49;125687.94;4973321;28;20038;-82
2022/11/28 10:16:52;;;;;;;7.50;4.55;;;8.30;99.90;;;-144.05;64.82;125687.94;4975704;28;20045;-82
2022/11/28 10:19:39;;;;;;;9.10;4.47;;;8.30;99.90;;;-144.05;64.84;125687.94;4952557;28;20057;-82
2022/11/28 10:22:18;;;;;;;10.18;5.07;;;8.40;99.90;;;-144.05;64.70;125687.94;4962745;28;20447;-83
2022/11/28 10:24:54;;;;;;;10.60;5.18;;;8.40;99.90;;;-144.05;64.90;125687.94;4959214;28;20042;-81
2022/11/28 10:27:35;;;;;;;7.85;5.20;;;8.40;99.90;;;-144.05;64.86;125687.94;4958696;28;20458;-81
2022/11/28 10:30:14;;;;;;;10.48;5.50;;;8.40;99.90;;;-144.05;65.43;125687.94;4958483;28;20505;-83
2022/11/28 10:32:51;;;;;;;7.55;4.90;;;8.40;99.90;;;-144.05;65.30;125687.94;4959696;28;20625;-81
2022/11/28 10:35:43;;;;;;;8.57;4.93;;;8.40;99.90;;;-144.05;66.70;125687.94;4959393;28;20081;-82
2022/11/28 10:38:13;;;;;;;9.05;5.05;;;8.40;99.90;;;-144.05;66.72;125687.94;4974901;28;20106;-83
2022/11/28 10:41:18;;;;;;;9.77;5.38;;;8.40;99.90;;;-144.05;66.98;125687.94;4958820;28;20035;-84
2022/11/28 10:43:55;;;;;;;11.20;5.47;;;8.40;99.90;;;-144.05;66.53;125687.94;4974896;28;20030;-82
2022/11/28 10:47:05;;;;;;;10.85;5.80;;;8.30;99.90;;;-144.05;66.97;125687.94;4974970;28;20031;-82